sensor_id;sensor_type;location;lat;lon;timestamp;P1;durP1;ratioP1;P2;durP2;ratioP2
20743;SDS011;56303;52.160;-0.428;2024-03-22T00:01:52;9.73;;;7.40;;
20743;SDS011;56303;52.160;-0.428;2024-03-22T00:04:18;8.70;;;7.57;;
20743;SDS011;56303;52.160;-0.428;2024-03-22T00:06:45;9.83;;;7.43;;
20743;SDS011;56303;52.160;-0.428;2024-03-22T00:09:14;11.47;;;7.57;;
20743;SDS011;56303;52.160;-0.428;2024-03-22T00:11:40;12.23;;;8.17;;
20743;SDS011;56303;52.160;-0.428;2024-03-22T00:14:07;11.63;;;7.37;;
20743;SDS011;56303;52.160;-0.428;2024-03-22T00:16:34;8.60;;;7.57;;
20743;SDS011;56303;52.160;-0.428;2024-03-22T00:19:00;10.20;;;7.50;;
20743;SDS011;56303;52.160;-0.428;2024-03-22T00:21:26;10.80;;;8.17;;
20743;SDS011;56303;52.160;-0.428;2024-03-22T00:23:53;9.37;;;7.47;;
20743;SDS011;56303;52.160;-0.428;2024-03-22T00:26:19;10.27;;;7.50;;
20743;SDS011;56303;52.160;-0.428;2024-03-22T00:28:45;10.87;;;8.00;;
20743;SDS011;56303;52.160;-0.428;2024-03-22T00:31:11;8.73;;;7.10;;
20743;SDS011;56303;52.160;-0.428;2024-03-22T00:33:37;11.73;;;7.50;;
20743;SDS011;56303;52.160;-0.428;2024-03-22T00:36:03;11.50;;;8.07;;
20743;SDS011;56303;52.160;-0.428;2024-03-22T00:38:29;10.63;;;7.70;;
20743;SDS011;56303;52.160;-0.428;2024-03-22T00:40:55;9.10;;;7.33;;
20743;SDS011;56303;52.160;-0.428;2024-03-22T00:43:21;11.00;;;7.70;;
20743;SDS011;56303;52.160;-0.428;2024-03-22T00:45:47;10.17;;;7.23;;
20743;SDS011;56303;52.160;-0.428;2024-03-22T00:48:13;10.27;;;7.60;;
20743;SDS011;56303;52.160;-0.428;2024-03-22T00:50:39;10.70;;;7.87;;
20743;SDS011;56303;52.160;-0.428;2024-03-22T00:53:05;11.47;;;7.47;;
20743;SDS011;56303;52.160;-0.428;2024-03-22T00:55:33;12.33;;;7.40;;
20743;SDS011;56303;52.160;-0.428;2024-03-22T00:57:59;10.70;;;7.53;;
20743;SDS011;56303;52.160;-0.428;2024-03-22T01:00:25;9.93;;;8.00;;
20743;SDS011;56303;52.160;-0.428;2024-03-22T01:02:51;12.67;;;7.47;;
20743;SDS011;56303;52.160;-0.428;2024-03-22T01:05:17;13.97;;;8.30;;
20743;SDS011;56303;52.160;-0.428;2024-03-22T01:07:43;10.23;;;7.10;;
20743;SDS011;56303;52.160;-0.428;2024-03-22T01:10:12;11.00;;;6.97;;
20743;SDS011;56303;52.160;-0.428;2024-03-22T01:12:38;8.80;;;7.33;;
20743;SDS011;56303;52.160;-0.428;2024-03-22T01:15:05;11.87;;;7.13;;
20743;SDS011;56303;52.160;-0.428;2024-03-22T01:17:32;10.63;;;7.10;;
20743;SDS011;56303;52.160;-0.428;2024-03-22T01:19:58;11.10;;;7.37;;
20743;SDS011;56303;52.160;-0.428;2024-03-22T01:22:24;9.17;;;6.80;;
20743;SDS011;56303;52.160;-0.428;2024-03-22T01:24:50;11.10;;;7.80;;
20743;SDS011;56303;52.160;-0.428;2024-03-22T01:27:16;11.67;;;7.03;;
20743;SDS011;56303;52.160;-0.428;2024-03-22T01:29:42;9.03;;;6.87;;
20743;SDS011;56303;52.160;-0.428;2024-03-22T01:32:07;11.47;;;7.50;;
20743;SDS011;56303;52.160;-0.428;2024-03-22T01:34:33;11.27;;;6.80;;
20743;SDS011;56303;52.160;-0.428;2024-03-22T01:37:02;12.13;;;7.60;;
20743;SDS011;56303;52.160;-0.428;2024-03-22T01:39:28;10.80;;;6.77;;
20743;SDS011;56303;52.160;-0.428;2024-03-22T01:41:54;9.00;;;6.83;;
20743;SDS011;56303;52.160;-0.428;2024-03-22T01:44:26;10.40;;;6.60;;
20743;SDS011;56303;52.160;-0.428;2024-03-22T01:46:53;10.97;;;7.00;;
20743;SDS011;56303;52.160;-0.428;2024-03-22T01:49:19;9.67;;;7.73;;
20743;SDS011;56303;52.160;-0.428;2024-03-22T01:51:45;11.10;;;7.20;;
20743;SDS011;56303;52.160;-0.428;2024-03-22T01:54:11;10.70;;;7.87;;
20743;SDS011;56303;52.160;-0.428;2024-03-22T01:56:37;12.83;;;7.40;;
20743;SDS011;56303;52.160;-0.428;2024-03-22T01:59:07;10.50;;;6.50;;
20743;SDS011;56303;52.160;-0.428;2024-03-22T02:01:33;11.30;;;8.13;;
20743;SDS011;56303;52.160;-0.428;2024-03-22T02:04:00;9.73;;;7.20;;
20743;SDS011;56303;52.160;-0.428;2024-03-22T02:06:26;11.00;;;8.00;;
20743;SDS011;56303;52.160;-0.428;2024-03-22T02:08:52;9.30;;;7.87;;
20743;SDS011;56303;52.160;-0.428;2024-03-22T02:11:19;9.40;;;7.43;;
20743;SDS011;56303;52.160;-0.428;2024-03-22T02:13:45;13.33;;;7.90;;
20743;SDS011;56303;52.160;-0.428;2024-03-22T02:16:11;10.27;;;7.00;;
20743;SDS011;56303;52.160;-0.428;2024-03-22T02:18:37;9.97;;;7.40;;
20743;SDS011;56303;52.160;-0.428;2024-03-22T02:21:03;11.17;;;7.07;;
20743;SDS011;56303;52.160;-0.428;2024-03-22T02:23:35;9.70;;;7.57;;
20743;SDS011;56303;52.160;-0.428;2024-03-22T02:26:03;12.43;;;8.23;;
20743;SDS011;56303;52.160;-0.428;2024-03-22T02:28:32;10.27;;;8.07;;
20743;SDS011;56303;52.160;-0.428;2024-03-22T02:30:59;11.93;;;8.23;;
20743;SDS011;56303;52.160;-0.428;2024-03-22T02:33:25;10.67;;;8.27;;
20743;SDS011;56303;52.160;-0.428;2024-03-22T02:35:51;11.93;;;8.00;;
20743;SDS011;56303;52.160;-0.428;2024-03-22T02:38:18;9.87;;;8.80;;
20743;SDS011;56303;52.160;-0.428;2024-03-22T02:40:44;13.23;;;8.50;;
20743;SDS011;56303;52.160;-0.428;2024-03-22T02:43:14;13.17;;;7.97;;
20743;SDS011;56303;52.160;-0.428;2024-03-22T02:45:40;12.13;;;9.23;;
20743;SDS011;56303;52.160;-0.428;2024-03-22T02:48:06;11.90;;;8.47;;
20743;SDS011;56303;52.160;-0.428;2024-03-22T02:50:36;11.53;;;8.50;;
20743;SDS011;56303;52.160;-0.428;2024-03-22T02:53:03;11.50;;;8.30;;
20743;SDS011;56303;52.160;-0.428;2024-03-22T02:55:29;12.13;;;8.60;;
20743;SDS011;56303;52.160;-0.428;2024-03-22T02:57:58;13.17;;;8.67;;
20743;SDS011;56303;52.160;-0.428;2024-03-22T03:00:24;12.30;;;8.67;;
20743;SDS011;56303;52.160;-0.428;2024-03-22T03:02:50;12.73;;;8.40;;
20743;SDS011;56303;52.160;-0.428;2024-03-22T03:05:16;11.10;;;7.97;;
20743;SDS011;56303;52.160;-0.428;2024-03-22T03:07:42;11.27;;;7.63;;
20743;SDS011;56303;52.160;-0.428;2024-03-22T03:10:07;10.47;;;7.37;;
20743;SDS011;56303;52.160;-0.428;2024-03-22T03:12:33;9.73;;;7.37;;
20743;SDS011;56303;52.160;-0.428;2024-03-22T03:14:59;11.97;;;8.60;;
20743;SDS011;56303;52.160;-0.428;2024-03-22T03:17:25;13.07;;;8.13;;
20743;SDS011;56303;52.160;-0.428;2024-03-22T03:19:51;13.73;;;8.53;;
20743;SDS011;56303;52.160;-0.428;2024-03-22T03:22:17;14.13;;;9.03;;
20743;SDS011;56303;52.160;-0.428;2024-03-22T03:24:43;10.47;;;6.80;;
20743;SDS011;56303;52.160;-0.428;2024-03-22T03:27:09;14.53;;;8.37;;
20743;SDS011;56303;52.160;-0.428;2024-03-22T03:29:35;13.63;;;9.17;;
20743;SDS011;56303;52.160;-0.428;2024-03-22T03:32:02;13.17;;;7.87;;
20743;SDS011;56303;52.160;-0.428;2024-03-22T03:34:28;19.17;;;9.00;;
20743;SDS011;56303;52.160;-0.428;2024-03-22T03:36:54;13.77;;;8.87;;
20743;SDS011;56303;52.160;-0.428;2024-03-22T03:39:20;15.10;;;9.40;;
20743;SDS011;56303;52.160;-0.428;2024-03-22T03:41:46;12.20;;;8.87;;
20743;SDS011;56303;52.160;-0.428;2024-03-22T03:44:12;11.73;;;7.73;;
20743;SDS011;56303;52.160;-0.428;2024-03-22T03:46:38;12.90;;;8.63;;
20743;SDS011;56303;52.160;-0.428;2024-03-22T03:49:04;15.43;;;8.67;;
20743;SDS011;56303;52.160;-0.428;2024-03-22T03:51:30;12.73;;;9.00;;
20743;SDS011;56303;52.160;-0.428;2024-03-22T03:53:55;12.67;;;8.67;;
20743;SDS011;56303;52.160;-0.428;2024-03-22T03:56:21;11.67;;;7.90;;
20743;SDS011;56303;52.160;-0.428;2024-03-22T03:58:47;12.93;;;8.80;;
20743;SDS011;56303;52.160;-0.428;2024-03-22T04:01:13;14.27;;;10.33;;
20743;SDS011;56303;52.160;-0.428;2024-03-22T04:03:39;10.27;;;8.30;;
20743;SDS011;56303;52.160;-0.428;2024-03-22T04:06:05;11.50;;;8.43;;
20743;SDS011;56303;52.160;-0.428;2024-03-22T04:08:31;12.77;;;9.10;;
20743;SDS011;56303;52.160;-0.428;2024-03-22T04:10:57;13.20;;;9.47;;
20743;SDS011;56303;52.160;-0.428;2024-03-22T04:13:24;11.50;;;8.23;;
20743;SDS011;56303;52.160;-0.428;2024-03-22T04:15:50;11.87;;;8.00;;
20743;SDS011;56303;52.160;-0.428;2024-03-22T04:18:17;11.13;;;8.67;;
20743;SDS011;56303;52.160;-0.428;2024-03-22T04:20:43;10.37;;;8.30;;
20743;SDS011;56303;52.160;-0.428;2024-03-22T04:23:18;11.37;;;8.73;;
20743;SDS011;56303;52.160;-0.428;2024-03-22T04:25:51;11.30;;;7.80;;
20743;SDS011;56303;52.160;-0.428;2024-03-22T04:28:24;12.83;;;9.63;;
20743;SDS011;56303;52.160;-0.428;2024-03-22T04:33:27;11.50;;;8.90;;
20743;SDS011;56303;52.160;-0.428;2024-03-22T04:35:53;12.73;;;8.70;;
20743;SDS011;56303;52.160;-0.428;2024-03-22T04:38:20;10.47;;;8.87;;
20743;SDS011;56303;52.160;-0.428;2024-03-22T04:40:46;12.90;;;9.03;;
20743;SDS011;56303;52.160;-0.428;2024-03-22T04:43:12;12.83;;;9.70;;
20743;SDS011;56303;52.160;-0.428;2024-03-22T04:45:38;12.37;;;9.20;;
20743;SDS011;56303;52.160;-0.428;2024-03-22T04:48:04;13.33;;;8.50;;
20743;SDS011;56303;52.160;-0.428;2024-03-22T04:50:30;12.03;;;8.70;;
20743;SDS011;56303;52.160;-0.428;2024-03-22T04:52:57;15.07;;;9.93;;
20743;SDS011;56303;52.160;-0.428;2024-03-22T04:55:23;13.07;;;8.80;;
20743;SDS011;56303;52.160;-0.428;2024-03-22T04:57:49;14.00;;;8.50;;
20743;SDS011;56303;52.160;-0.428;2024-03-22T05:00:15;12.57;;;9.70;;
20743;SDS011;56303;52.160;-0.428;2024-03-22T05:02:41;10.67;;;9.47;;
20743;SDS011;56303;52.160;-0.428;2024-03-22T05:05:07;14.47;;;9.13;;
20743;SDS011;56303;52.160;-0.428;2024-03-22T05:07:33;11.17;;;8.50;;
20743;SDS011;56303;52.160;-0.428;2024-03-22T05:09:59;11.90;;;9.70;;
20743;SDS011;56303;52.160;-0.428;2024-03-22T05:12:25;11.90;;;10.47;;
20743;SDS011;56303;52.160;-0.428;2024-03-22T05:14:51;14.10;;;9.27;;
20743;SDS011;56303;52.160;-0.428;2024-03-22T05:17:17;12.17;;;9.00;;
20743;SDS011;56303;52.160;-0.428;2024-03-22T05:19:43;14.47;;;10.17;;
20743;SDS011;56303;52.160;-0.428;2024-03-22T05:22:09;10.90;;;9.53;;
20743;SDS011;56303;52.160;-0.428;2024-03-22T05:24:35;11.97;;;9.43;;
20743;SDS011;56303;52.160;-0.428;2024-03-22T05:27:01;15.57;;;11.17;;
20743;SDS011;56303;52.160;-0.428;2024-03-22T05:29:26;13.57;;;9.27;;
20743;SDS011;56303;52.160;-0.428;2024-03-22T05:31:52;13.47;;;9.57;;
20743;SDS011;56303;52.160;-0.428;2024-03-22T05:34:18;12.00;;;10.47;;
20743;SDS011;56303;52.160;-0.428;2024-03-22T05:36:50;13.70;;;9.83;;
20743;SDS011;56303;52.160;-0.428;2024-03-22T05:39:16;14.70;;;11.17;;
20743;SDS011;56303;52.160;-0.428;2024-03-22T05:41:42;12.20;;;10.13;;
20743;SDS011;56303;52.160;-0.428;2024-03-22T05:44:08;16.60;;;10.80;;
20743;SDS011;56303;52.160;-0.428;2024-03-22T05:46:34;13.00;;;9.77;;
20743;SDS011;56303;52.160;-0.428;2024-03-22T05:49:00;14.00;;;9.93;;
20743;SDS011;56303;52.160;-0.428;2024-03-22T05:51:26;12.43;;;8.87;;
20743;SDS011;56303;52.160;-0.428;2024-03-22T05:53:52;14.63;;;10.23;;
20743;SDS011;56303;52.160;-0.428;2024-03-22T05:56:18;14.23;;;10.40;;
20743;SDS011;56303;52.160;-0.428;2024-03-22T05:58:44;16.83;;;10.07;;
20743;SDS011;56303;52.160;-0.428;2024-03-22T06:01:10;13.37;;;9.10;;
20743;SDS011;56303;52.160;-0.428;2024-03-22T06:03:36;13.77;;;9.50;;
20743;SDS011;56303;52.160;-0.428;2024-03-22T06:06:03;16.73;;;10.73;;
20743;SDS011;56303;52.160;-0.428;2024-03-22T06:08:29;14.60;;;9.83;;
20743;SDS011;56303;52.160;-0.428;2024-03-22T06:10:57;13.57;;;8.53;;
20743;SDS011;56303;52.160;-0.428;2024-03-22T06:13:23;14.00;;;8.27;;
20743;SDS011;56303;52.160;-0.428;2024-03-22T06:15:49;9.57;;;7.43;;
20743;SDS011;56303;52.160;-0.428;2024-03-22T06:18:15;9.23;;;7.40;;
20743;SDS011;56303;52.160;-0.428;2024-03-22T06:20:41;9.33;;;6.40;;
20743;SDS011;56303;52.160;-0.428;2024-03-22T06:23:08;7.57;;;6.00;;
20743;SDS011;56303;52.160;-0.428;2024-03-22T06:25:34;8.07;;;6.57;;
20743;SDS011;56303;52.160;-0.428;2024-03-22T06:28:00;10.73;;;5.70;;
20743;SDS011;56303;52.160;-0.428;2024-03-22T06:30:26;10.20;;;6.07;;
20743;SDS011;56303;52.160;-0.428;2024-03-22T06:32:53;7.90;;;5.27;;
20743;SDS011;56303;52.160;-0.428;2024-03-22T06:35:20;7.40;;;4.80;;
20743;SDS011;56303;52.160;-0.428;2024-03-22T06:37:46;8.57;;;5.20;;
20743;SDS011;56303;52.160;-0.428;2024-03-22T06:40:13;6.40;;;4.43;;
20743;SDS011;56303;52.160;-0.428;2024-03-22T06:42:40;7.87;;;5.27;;
20743;SDS011;56303;52.160;-0.428;2024-03-22T06:45:06;9.60;;;4.90;;
20743;SDS011;56303;52.160;-0.428;2024-03-22T06:47:32;7.10;;;5.00;;
20743;SDS011;56303;52.160;-0.428;2024-03-22T06:49:58;6.90;;;4.00;;
20743;SDS011;56303;52.160;-0.428;2024-03-22T06:52:24;6.80;;;4.73;;
20743;SDS011;56303;52.160;-0.428;2024-03-22T06:54:50;7.40;;;4.40;;
20743;SDS011;56303;52.160;-0.428;2024-03-22T06:57:17;4.63;;;3.03;;
20743;SDS011;56303;52.160;-0.428;2024-03-22T06:59:43;7.93;;;2.97;;
20743;SDS011;56303;52.160;-0.428;2024-03-22T07:02:09;5.40;;;2.93;;
20743;SDS011;56303;52.160;-0.428;2024-03-22T07:04:35;3.83;;;2.33;;
20743;SDS011;56303;52.160;-0.428;2024-03-22T07:07:01;5.67;;;2.43;;
20743;SDS011;56303;52.160;-0.428;2024-03-22T07:09:27;4.27;;;2.80;;
20743;SDS011;56303;52.160;-0.428;2024-03-22T07:11:55;4.93;;;2.10;;
20743;SDS011;56303;52.160;-0.428;2024-03-22T07:14:21;5.97;;;2.53;;
20743;SDS011;56303;52.160;-0.428;2024-03-22T07:16:50;5.33;;;1.87;;
20743;SDS011;56303;52.160;-0.428;2024-03-22T07:19:16;2.90;;;1.90;;
20743;SDS011;56303;52.160;-0.428;2024-03-22T07:21:42;3.53;;;2.10;;
20743;SDS011;56303;52.160;-0.428;2024-03-22T07:24:07;4.80;;;2.00;;
20743;SDS011;56303;52.160;-0.428;2024-03-22T07:26:33;6.03;;;2.13;;
20743;SDS011;56303;52.160;-0.428;2024-03-22T07:28:59;3.23;;;1.90;;
20743;SDS011;56303;52.160;-0.428;2024-03-22T07:31:26;2.77;;;1.80;;
20743;SDS011;56303;52.160;-0.428;2024-03-22T07:33:53;3.47;;;1.80;;
20743;SDS011;56303;52.160;-0.428;2024-03-22T07:36:19;2.83;;;1.80;;
20743;SDS011;56303;52.160;-0.428;2024-03-22T07:38:45;4.70;;;2.27;;
20743;SDS011;56303;52.160;-0.428;2024-03-22T07:41:11;3.20;;;1.83;;
20743;SDS011;56303;52.160;-0.428;2024-03-22T07:43:37;2.30;;;1.70;;
20743;SDS011;56303;52.160;-0.428;2024-03-22T07:46:03;4.57;;;1.87;;
20743;SDS011;56303;52.160;-0.428;2024-03-22T07:48:29;4.47;;;1.73;;
20743;SDS011;56303;52.160;-0.428;2024-03-22T07:50:56;3.30;;;1.70;;
20743;SDS011;56303;52.160;-0.428;2024-03-22T07:53:23;3.70;;;1.80;;
20743;SDS011;56303;52.160;-0.428;2024-03-22T07:55:49;3.80;;;1.80;;
20743;SDS011;56303;52.160;-0.428;2024-03-22T07:58:15;4.30;;;1.60;;
20743;SDS011;56303;52.160;-0.428;2024-03-22T08:00:41;4.13;;;1.87;;
20743;SDS011;56303;52.160;-0.428;2024-03-22T08:03:07;4.33;;;1.80;;
20743;SDS011;56303;52.160;-0.428;2024-03-22T08:05:39;6.10;;;2.00;;
20743;SDS011;56303;52.160;-0.428;2024-03-22T08:08:06;3.93;;;1.73;;
20743;SDS011;56303;52.160;-0.428;2024-03-22T08:10:32;3.03;;;1.87;;
20743;SDS011;56303;52.160;-0.428;2024-03-22T08:12:58;3.50;;;1.87;;
20743;SDS011;56303;52.160;-0.428;2024-03-22T08:15:25;4.17;;;1.57;;
20743;SDS011;56303;52.160;-0.428;2024-03-22T08:17:52;2.77;;;1.30;;
20743;SDS011;56303;52.160;-0.428;2024-03-22T08:20:18;3.13;;;1.43;;
20743;SDS011;56303;52.160;-0.428;2024-03-22T08:22:44;2.30;;;1.40;;
20743;SDS011;56303;52.160;-0.428;2024-03-22T08:25:10;2.33;;;1.37;;
20743;SDS011;56303;52.160;-0.428;2024-03-22T08:27:37;3.20;;;1.60;;
20743;SDS011;56303;52.160;-0.428;2024-03-22T08:30:03;2.50;;;1.63;;
20743;SDS011;56303;52.160;-0.428;2024-03-22T08:32:30;5.03;;;1.47;;
20743;SDS011;56303;52.160;-0.428;2024-03-22T08:34:55;2.60;;;1.40;;
20743;SDS011;56303;52.160;-0.428;2024-03-22T08:37:21;3.47;;;1.50;;
20743;SDS011;56303;52.160;-0.428;2024-03-22T08:39:48;2.10;;;1.17;;
20743;SDS011;56303;52.160;-0.428;2024-03-22T08:42:13;3.30;;;1.60;;
20743;SDS011;56303;52.160;-0.428;2024-03-22T08:44:39;2.97;;;1.57;;
20743;SDS011;56303;52.160;-0.428;2024-03-22T08:47:05;4.73;;;1.73;;
20743;SDS011;56303;52.160;-0.428;2024-03-22T08:49:31;2.97;;;1.20;;
20743;SDS011;56303;52.160;-0.428;2024-03-22T08:51:57;2.53;;;1.43;;
20743;SDS011;56303;52.160;-0.428;2024-03-22T08:54:23;3.23;;;1.20;;
20743;SDS011;56303;52.160;-0.428;2024-03-22T08:56:49;2.93;;;1.37;;
20743;SDS011;56303;52.160;-0.428;2024-03-22T08:59:15;1.67;;;1.00;;
20743;SDS011;56303;52.160;-0.428;2024-03-22T09:01:41;2.10;;;1.00;;
20743;SDS011;56303;52.160;-0.428;2024-03-22T09:04:07;1.63;;;1.00;;
20743;SDS011;56303;52.160;-0.428;2024-03-22T09:06:33;3.27;;;1.27;;
20743;SDS011;56303;52.160;-0.428;2024-03-22T09:09:00;3.43;;;1.40;;
20743;SDS011;56303;52.160;-0.428;2024-03-22T09:11:28;6.70;;;1.93;;
20743;SDS011;56303;52.160;-0.428;2024-03-22T09:13:55;2.33;;;1.27;;
20743;SDS011;56303;52.160;-0.428;2024-03-22T09:16:21;5.13;;;1.60;;
20743;SDS011;56303;52.160;-0.428;2024-03-22T09:18:48;5.70;;;1.73;;
20743;SDS011;56303;52.160;-0.428;2024-03-22T09:21:14;6.33;;;1.97;;
20743;SDS011;56303;52.160;-0.428;2024-03-22T09:23:40;2.93;;;1.50;;
20743;SDS011;56303;52.160;-0.428;2024-03-22T09:26:06;6.43;;;1.90;;
20743;SDS011;56303;52.160;-0.428;2024-03-22T09:28:32;4.37;;;1.80;;
20743;SDS011;56303;52.160;-0.428;2024-03-22T09:30:58;5.23;;;1.77;;
20743;SDS011;56303;52.160;-0.428;2024-03-22T09:33:29;6.27;;;2.23;;
20743;SDS011;56303;52.160;-0.428;2024-03-22T09:35:55;9.13;;;3.00;;
20743;SDS011;56303;52.160;-0.428;2024-03-22T09:38:21;7.93;;;2.30;;
20743;SDS011;56303;52.160;-0.428;2024-03-22T09:40:47;11.17;;;2.80;;
20743;SDS011;56303;52.160;-0.428;2024-03-22T09:43:12;7.00;;;2.67;;
20743;SDS011;56303;52.160;-0.428;2024-03-22T09:45:44;6.27;;;2.07;;
20743;SDS011;56303;52.160;-0.428;2024-03-22T09:48:10;11.37;;;2.93;;
20743;SDS011;56303;52.160;-0.428;2024-03-22T09:50:36;9.03;;;3.33;;
20743;SDS011;56303;52.160;-0.428;2024-03-22T09:53:03;9.27;;;3.30;;
20743;SDS011;56303;52.160;-0.428;2024-03-22T09:55:30;9.53;;;3.13;;
20743;SDS011;56303;52.160;-0.428;2024-03-22T09:57:57;12.27;;;3.40;;
20743;SDS011;56303;52.160;-0.428;2024-03-22T10:00:23;10.33;;;3.27;;
20743;SDS011;56303;52.160;-0.428;2024-03-22T10:02:51;10.70;;;3.00;;
20743;SDS011;56303;52.160;-0.428;2024-03-22T10:05:18;8.23;;;3.20;;
20743;SDS011;56303;52.160;-0.428;2024-03-22T10:07:44;9.17;;;2.97;;
20743;SDS011;56303;52.160;-0.428;2024-03-22T10:10:10;9.20;;;2.73;;
20743;SDS011;56303;52.160;-0.428;2024-03-22T10:12:37;10.93;;;3.43;;
20743;SDS011;56303;52.160;-0.428;2024-03-22T10:15:04;11.77;;;3.93;;
20743;SDS011;56303;52.160;-0.428;2024-03-22T10:17:34;9.30;;;3.27;;
20743;SDS011;56303;52.160;-0.428;2024-03-22T10:20:00;13.83;;;4.70;;
20743;SDS011;56303;52.160;-0.428;2024-03-22T10:22:26;14.70;;;4.67;;
20743;SDS011;56303;52.160;-0.428;2024-03-22T10:24:52;9.70;;;4.07;;
20743;SDS011;56303;52.160;-0.428;2024-03-22T10:27:18;15.33;;;4.33;;
20743;SDS011;56303;52.160;-0.428;2024-03-22T10:29:45;17.50;;;5.13;;
20743;SDS011;56303;52.160;-0.428;2024-03-22T10:32:12;14.73;;;5.77;;
20743;SDS011;56303;52.160;-0.428;2024-03-22T10:34:39;13.50;;;4.03;;
20743;SDS011;56303;52.160;-0.428;2024-03-22T10:37:06;11.20;;;4.67;;
20743;SDS011;56303;52.160;-0.428;2024-03-22T10:39:35;15.77;;;4.30;;
20743;SDS011;56303;52.160;-0.428;2024-03-22T10:42:04;15.10;;;4.63;;
20743;SDS011;56303;52.160;-0.428;2024-03-22T10:44:30;19.23;;;5.20;;
20743;SDS011;56303;52.160;-0.428;2024-03-22T10:46:56;12.07;;;4.93;;
20743;SDS011;56303;52.160;-0.428;2024-03-22T10:49:27;13.27;;;5.40;;
20743;SDS011;56303;52.160;-0.428;2024-03-22T10:51:57;15.13;;;4.33;;
20743;SDS011;56303;52.160;-0.428;2024-03-22T10:54:39;15.53;;;4.60;;
20743;SDS011;56303;52.160;-0.428;2024-03-22T10:57:11;13.57;;;4.13;;
20743;SDS011;56303;52.160;-0.428;2024-03-22T10:59:40;13.87;;;4.87;;
20743;SDS011;56303;52.160;-0.428;2024-03-22T11:02:06;14.03;;;4.90;;
20743;SDS011;56303;52.160;-0.428;2024-03-22T11:04:36;17.87;;;5.73;;
20743;SDS011;56303;52.160;-0.428;2024-03-22T11:07:02;16.43;;;4.70;;
20743;SDS011;56303;52.160;-0.428;2024-03-22T11:09:28;16.27;;;5.00;;
20743;SDS011;56303;52.160;-0.428;2024-03-22T11:11:55;13.37;;;4.47;;
20743;SDS011;56303;52.160;-0.428;2024-03-22T11:14:25;18.90;;;4.67;;
20743;SDS011;56303;52.160;-0.428;2024-03-22T11:16:51;11.73;;;4.87;;
20743;SDS011;56303;52.160;-0.428;2024-03-22T11:19:20;15.53;;;4.67;;
20743;SDS011;56303;52.160;-0.428;2024-03-22T11:21:46;16.27;;;4.70;;
20743;SDS011;56303;52.160;-0.428;2024-03-22T11:24:12;15.57;;;5.37;;
20743;SDS011;56303;52.160;-0.428;2024-03-22T11:26:38;14.23;;;5.00;;
20743;SDS011;56303;52.160;-0.428;2024-03-22T11:29:04;16.73;;;4.93;;
20743;SDS011;56303;52.160;-0.428;2024-03-22T11:31:30;17.57;;;5.30;;
20743;SDS011;56303;52.160;-0.428;2024-03-22T11:33:56;18.07;;;4.87;;
20743;SDS011;56303;52.160;-0.428;2024-03-22T11:36:22;20.83;;;4.27;;
20743;SDS011;56303;52.160;-0.428;2024-03-22T11:38:49;18.37;;;4.77;;
20743;SDS011;56303;52.160;-0.428;2024-03-22T11:41:33;18.17;;;5.27;;
20743;SDS011;56303;52.160;-0.428;2024-03-22T11:44:00;14.50;;;4.47;;
20743;SDS011;56303;52.160;-0.428;2024-03-22T11:46:27;13.57;;;4.33;;
20743;SDS011;56303;52.160;-0.428;2024-03-22T11:48:53;12.47;;;3.50;;
20743;SDS011;56303;52.160;-0.428;2024-03-22T11:51:20;12.70;;;3.83;;
20743;SDS011;56303;52.160;-0.428;2024-03-22T11:53:50;9.00;;;3.80;;
20743;SDS011;56303;52.160;-0.428;2024-03-22T11:56:17;17.57;;;5.23;;
20743;SDS011;56303;52.160;-0.428;2024-03-22T11:58:45;13.27;;;4.03;;
20743;SDS011;56303;52.160;-0.428;2024-03-22T12:01:12;13.07;;;4.63;;
20743;SDS011;56303;52.160;-0.428;2024-03-22T12:03:39;12.13;;;3.80;;
20743;SDS011;56303;52.160;-0.428;2024-03-22T12:06:08;11.60;;;4.27;;
20743;SDS011;56303;52.160;-0.428;2024-03-22T12:08:35;12.77;;;4.27;;
20743;SDS011;56303;52.160;-0.428;2024-03-22T12:11:03;15.57;;;4.93;;
20743;SDS011;56303;52.160;-0.428;2024-03-22T12:13:32;18.80;;;4.77;;
20743;SDS011;56303;52.160;-0.428;2024-03-22T12:15:58;17.47;;;4.47;;
20743;SDS011;56303;52.160;-0.428;2024-03-22T12:18:24;15.37;;;4.10;;
20743;SDS011;56303;52.160;-0.428;2024-03-22T12:20:49;13.40;;;4.67;;
20743;SDS011;56303;52.160;-0.428;2024-03-22T12:23:15;20.00;;;4.70;;
20743;SDS011;56303;52.160;-0.428;2024-03-22T12:25:41;13.27;;;4.43;;
20743;SDS011;56303;52.160;-0.428;2024-03-22T12:28:07;10.30;;;3.50;;
20743;SDS011;56303;52.160;-0.428;2024-03-22T12:30:33;11.77;;;3.57;;
20743;SDS011;56303;52.160;-0.428;2024-03-22T12:32:59;13.40;;;4.20;;
20743;SDS011;56303;52.160;-0.428;2024-03-22T12:35:25;13.67;;;4.03;;
20743;SDS011;56303;52.160;-0.428;2024-03-22T12:37:51;10.87;;;3.70;;
20743;SDS011;56303;52.160;-0.428;2024-03-22T12:40:18;10.37;;;3.17;;
20743;SDS011;56303;52.160;-0.428;2024-03-22T12:42:44;8.73;;;2.90;;
20743;SDS011;56303;52.160;-0.428;2024-03-22T12:45:11;12.83;;;3.60;;
20743;SDS011;56303;52.160;-0.428;2024-03-22T12:47:37;9.60;;;3.30;;
20743;SDS011;56303;52.160;-0.428;2024-03-22T12:50:04;10.30;;;3.50;;
20743;SDS011;56303;52.160;-0.428;2024-03-22T12:52:31;8.77;;;3.37;;
20743;SDS011;56303;52.160;-0.428;2024-03-22T12:54:57;8.43;;;3.53;;
20743;SDS011;56303;52.160;-0.428;2024-03-22T12:57:22;10.73;;;3.40;;
20743;SDS011;56303;52.160;-0.428;2024-03-22T12:59:48;10.87;;;3.23;;
20743;SDS011;56303;52.160;-0.428;2024-03-22T13:02:14;7.17;;;2.77;;
20743;SDS011;56303;52.160;-0.428;2024-03-22T13:04:40;11.80;;;3.37;;
20743;SDS011;56303;52.160;-0.428;2024-03-22T13:07:06;10.00;;;2.80;;
20743;SDS011;56303;52.160;-0.428;2024-03-22T13:09:32;13.13;;;3.23;;
20743;SDS011;56303;52.160;-0.428;2024-03-22T13:11:58;9.97;;;2.83;;
20743;SDS011;56303;52.160;-0.428;2024-03-22T13:14:24;9.77;;;3.07;;
20743;SDS011;56303;52.160;-0.428;2024-03-22T13:16:50;10.80;;;3.23;;
20743;SDS011;56303;52.160;-0.428;2024-03-22T13:19:15;8.30;;;2.87;;
20743;SDS011;56303;52.160;-0.428;2024-03-22T13:21:43;13.60;;;3.40;;
20743;SDS011;56303;52.160;-0.428;2024-03-22T13:24:13;9.10;;;3.17;;
20743;SDS011;56303;52.160;-0.428;2024-03-22T13:26:39;8.13;;;2.93;;
20743;SDS011;56303;52.160;-0.428;2024-03-22T13:29:05;10.57;;;3.30;;
20743;SDS011;56303;52.160;-0.428;2024-03-22T13:31:31;11.27;;;3.30;;
20743;SDS011;56303;52.160;-0.428;2024-03-22T13:33:56;10.53;;;3.00;;
20743;SDS011;56303;52.160;-0.428;2024-03-22T13:36:22;5.67;;;2.57;;
20743;SDS011;56303;52.160;-0.428;2024-03-22T13:38:51;8.70;;;2.63;;
20743;SDS011;56303;52.160;-0.428;2024-03-22T13:41:17;8.63;;;3.03;;
20743;SDS011;56303;52.160;-0.428;2024-03-22T13:43:42;9.37;;;3.17;;
20743;SDS011;56303;52.160;-0.428;2024-03-22T13:46:10;7.33;;;3.30;;
20743;SDS011;56303;52.160;-0.428;2024-03-22T13:48:42;7.43;;;2.93;;
20743;SDS011;56303;52.160;-0.428;2024-03-22T13:51:08;6.37;;;2.87;;
20743;SDS011;56303;52.160;-0.428;2024-03-22T13:53:34;8.63;;;3.27;;
20743;SDS011;56303;52.160;-0.428;2024-03-22T13:56:02;9.30;;;3.00;;
20743;SDS011;56303;52.160;-0.428;2024-03-22T13:58:28;8.27;;;2.60;;
20743;SDS011;56303;52.160;-0.428;2024-03-22T14:00:54;5.83;;;2.40;;
20743;SDS011;56303;52.160;-0.428;2024-03-22T14:03:19;9.83;;;2.97;;
20743;SDS011;56303;52.160;-0.428;2024-03-22T14:05:48;7.20;;;2.73;;
20743;SDS011;56303;52.160;-0.428;2024-03-22T14:08:14;7.03;;;2.33;;
20743;SDS011;56303;52.160;-0.428;2024-03-22T14:10:43;8.23;;;2.40;;
20743;SDS011;56303;52.160;-0.428;2024-03-22T14:13:09;5.33;;;1.90;;
20743;SDS011;56303;52.160;-0.428;2024-03-22T14:15:35;4.17;;;2.57;;
20743;SDS011;56303;52.160;-0.428;2024-03-22T14:18:02;6.70;;;1.97;;
20743;SDS011;56303;52.160;-0.428;2024-03-22T14:20:28;7.87;;;2.33;;
20743;SDS011;56303;52.160;-0.428;2024-03-22T14:22:54;7.20;;;2.17;;
20743;SDS011;56303;52.160;-0.428;2024-03-22T14:25:20;7.43;;;2.53;;